Time;durP1;ratioP1;P1;durP2;ratioP2;P2;SDS_P1;SDS_P2;PMS_P1;PMS_P2;Temp;Humidity;BMP_temperature;BMP_pressure;BME280_temperature;BME280_humidity;BME280_pressure;Samples;Min_cycle;Max_cycle;Signal;HPM_P1;HPM_P2
2022/06/11 00:00:09;;;;;;;;;;;20.20;70.40;;;;;;5042658;28;1010;-69
2022/06/11 00:02:35;;;;;;;;;;;20.20;70.40;;;;;;5044709;28;1199;-70
2022/06/11 00:05:01;;;;;;;;;;;20.20;70.40;;;;;;5040272;28;1252;-70
2022/06/11 00:07:26;;;;;;;;;;;20.20;70.50;;;;;;5037722;28;2151;-71
2022/06/11 00:09:52;;;;;;;;;;;20.20;70.40;;;;;;5032713;28;1237;-71
2022/06/11 00:12:17;;;;;;;;;;;20.20;70.40;;;;;;5031642;28;1005;-71
2022/06/11 00:14:43;;;;;;;;;;;20.20;70.40;;;;;;5033039;28;776;-71
2022/06/11 00:17:09;;;;;;;;;;;20.20;70.50;;;;;;5031585;28;851;-71
2022/06/11 00:19:34;;;;;;;;;;;20.20;70.40;;;;;;5031318;28;1224;-71
2022/06/11 00:22:00;;;;;;;;;;;20.20;70.50;;;;;;5014659;28;1209;-71
2022/06/11 00:24:25;;;;;;;;;;;20.20;70.40;;;;;;5032910;28;1162;-71
2022/06/11 00:26:51;;;;;;;;;;;20.20;70.40;;;;;;5031406;28;1906;-71
2022/06/11 00:29:17;;;;;;;;;;;20.20;70.40;;;;;;5032571;28;1215;-71
2022/06/11 00:31:42;;;;;;;;;;;20.20;70.50;;;;;;5031266;28;846;-71
2022/06/11 00:34:08;;;;;;;;;;;20.20;70.50;;;;;;5031273;28;1107;-71
2022/06/11 00:36:34;;;;;;;;;;;20.20;70.40;;;;;;5032356;28;878;-71
2022/06/11 00:38:59;;;;;;;;;;;20.20;70.40;;;;;;5032655;28;1280;-70
2022/06/11 00:41:25;;;;;;;;;;;20.20;70.40;;;;;;5032630;28;791;-71
2022/06/11 00:43:52;;;;;;;;;;;20.20;70.50;;;;;;5032884;28;851;-71
2022/06/11 00:46:37;;;;;;;;;;;20.10;70.40;;;;;;5033777;28;835;-71
2022/06/11 00:49:03;;;;;;;;;;;20.20;70.50;;;;;;5032428;28;1219;-70
2022/06/11 00:51:31;;;;;;;;;;;20.20;70.50;;;;;;5014536;28;1227;-71
2022/06/11 00:54:00;;;;;;;;;;;20.20;70.40;;;;;;5031563;28;803;-70
2022/06/11 00:56:38;;;;;;;;;;;20.20;70.40;;;;;;5015042;28;1139;-71
2022/06/11 00:59:05;;;;;;;;;;;20.20;70.40;;;;;;5035647;28;1169;-70
2022/06/11 01:01:30;;;;;;;;;;;20.20;70.40;;;;;;5036370;28;831;-71
2022/06/11 01:03:58;;;;;;;;;;;20.20;70.40;;;;;;5035528;28;882;-71
2022/06/11 01:06:26;;;;;;;;;;;20.20;70.50;;;;;;5035380;28;831;-71
2022/06/11 01:08:52;;;;;;;;;;;20.20;70.50;;;;;;5043194;28;2811;-70
2022/06/11 01:11:24;;;;;;;;;;;20.20;70.40;;;;;;5014937;28;1291;-71
2022/06/11 01:14:06;;;;;;;;;;;20.20;70.50;;;;;;5036341;28;1186;-71
2022/06/11 01:16:37;;;;;;;;;;;20.20;70.50;;;;;;5018872;28;799;-70
2022/06/11 01:19:12;;;;;;;;;;;20.20;70.40;;;;;;5002221;28;1392;-71
2022/06/11 01:22:03;;;;;;;;;;;20.20;70.50;;;;;;5036123;28;895;-71
2022/06/11 01:24:52;;;;;;;;;;;20.20;70.50;;;;;;5012554;28;1253;-71
2022/06/11 01:27:36;;;;;;;;;;;20.20;70.50;;;;;;5018745;28;1902;-71
2022/06/11 01:30:11;;;;;;;;;;;20.20;70.40;;;;;;5036059;28;827;-71
2022/06/11 01:32:47;;;;;;;;;;;20.20;70.50;;;;;;5036045;28;1012;-71
2022/06/11 01:35:27;;;;;;;;;;;20.20;70.50;;;;;;5018232;28;1164;-71
2022/06/11 01:37:54;;;;;;;;;;;20.20;70.50;;;;;;5035923;28;1232;-71
2022/06/11 01:40:38;;;;;;;;;;;20.20;70.40;;;;;;5034648;28;796;-71
2022/06/11 01:43:12;;;;;;;;;;;20.20;70.50;;;;;;5035862;28;835;-71
2022/06/11 01:45:37;;;;;;;;;;;20.20;70.40;;;;;;5034953;28;1013;-71
2022/06/11 01:48:03;;;;;;;;;;;20.20;70.50;;;;;;5035892;28;1910;-70
2022/06/11 01:50:29;;;;;;;;;;;20.20;70.50;;;;;;5034338;28;851;-71
2022/06/11 01:53:14;;;;;;;;;;;20.20;70.50;;;;;;5035705;28;886;-71
2022/06/11 01:55:39;;;;;;;;;;;20.20;70.50;;;;;;5030241;28;1200;-71
2022/06/11 01:58:05;;;;;;;;;;;20.20;70.50;;;;;;5025605;28;1307;-72
2022/06/11 02:00:33;;;;;;;;;;;20.20;70.50;;;;;;5028545;28;1976;-71
2022/06/11 02:03:02;;;;;;;;;;;20.20;70.50;;;;;;5012172;28;1236;-72
2022/06/11 02:05:36;;;;;;;;;;;20.20;70.50;;;;;;5024834;28;1236;-71
2022/06/11 02:08:14;;;;;;;;;;;20.20;70.50;;;;;;5010005;28;1899;-69
2022/06/11 02:10:46;;;;;;;;;;;20.20;70.50;;;;;;5023926;28;1221;-69
2022/06/11 02:13:18;;;;;;;;;;;20.20;70.50;;;;;;5026404;28;1279;-68
2022/06/11 02:15:49;;;;;;;;;;;20.20;70.50;;;;;;5027581;28;1224;-69
2022/06/11 02:18:16;;;;;;;;;;;20.20;70.50;;;;;;5026104;28;1377;-72
2022/06/11 02:20:42;;;;;;;;;;;20.20;70.50;;;;;;5010844;28;1270;-71
2022/06/11 02:23:11;;;;;;;;;;;20.20;70.50;;;;;;5028001;28;1224;-71
2022/06/11 02:25:38;;;;;;;;;;;20.20;70.50;;;;;;5007125;28;1362;-73
2022/06/11 02:28:06;;;;;;;;;;;20.20;70.50;;;;;;5010591;28;1973;-70
2022/06/11 02:30:31;;;;;;;;;;;20.20;70.50;;;;;;5025876;28;1200;-71
2022/06/11 02:32:57;;;;;;;;;;;20.10;70.40;;;;;;5026250;28;1216;-70
2022/06/11 02:35:24;;;;;;;;;;;20.20;70.50;;;;;;5042241;28;1300;-70
2022/06/11 02:37:49;;;;;;;;;;;20.20;70.50;;;;;;5035185;28;1196;-70
2022/06/11 02:40:20;;;;;;;;;;;20.20;70.50;;;;;;5034945;28;894;-71
2022/06/11 02:42:45;;;;;;;;;;;20.20;70.50;;;;;;5017455;28;780;-70
2022/06/11 02:45:12;;;;;;;;;;;20.20;70.50;;;;;;5017460;28;887;-71
2022/06/11 02:47:38;;;;;;;;;;;20.20;70.50;;;;;;5034873;28;1902;-71
2022/06/11 02:50:04;;;;;;;;;;;20.20;70.50;;;;;;5017061;28;1033;-71
2022/06/11 02:52:29;;;;;;;;;;;20.20;70.50;;;;;;5034843;28;1077;-71
2022/06/11 02:54:55;;;;;;;;;;;20.20;70.50;;;;;;5017328;28;886;-70
2022/06/11 02:57:24;;;;;;;;;;;20.10;70.40;;;;;;5035028;28;839;-70
2022/06/11 02:59:50;;;;;;;;;;;20.20;70.50;;;;;;5034570;28;1161;-71
2022/06/11 03:02:15;;;;;;;;;;;20.20;70.50;;;;;;5034419;28;779;-70
2022/06/11 03:04:40;;;;;;;;;;;20.20;70.50;;;;;;5000751;28;1126;-71
2022/06/11 03:07:08;;;;;;;;;;;20.20;70.50;;;;;;5034408;28;1955;-70
2022/06/11 03:09:34;;;;;;;;;;;20.20;70.50;;;;;;5034290;28;1274;-70
2022/06/11 03:11:59;;;;;;;;;;;20.20;70.50;;;;;;5032938;28;819;-70
2022/06/11 03:14:25;;;;;;;;;;;20.20;70.50;;;;;;5033135;28;973;-70
2022/06/11 03:16:50;;;;;;;;;;;20.20;70.50;;;;;;5032960;28;875;-72
2022/06/11 03:19:20;;;;;;;;;;;20.20;70.50;;;;;;5032882;28;1313;-71
2022/06/11 03:21:46;;;;;;;;;;;20.20;70.50;;;;;;5032558;28;859;-71
2022/06/11 03:24:11;;;;;;;;;;;20.20;70.50;;;;;;5033081;28;832;-73
2022/06/11 03:26:37;;;;;;;;;;;20.20;70.50;;;;;;5016793;28;1902;-73
2022/06/11 03:29:03;;;;;;;;;;;20.10;70.50;;;;;;5033040;28;1209;-73
2022/06/11 03:31:28;;;;;;;;;;;20.10;70.40;;;;;;5032454;28;1032;-73
2022/06/11 03:33:53;;;;;;;;;;;20.20;70.50;;;;;;5034051;28;1103;-73
2022/06/11 03:36:19;;;;;;;;;;;20.20;70.50;;;;;;5016461;28;764;-72
2022/06/11 03:38:45;;;;;;;;;;;20.20;70.50;;;;;;5033930;28;1225;-72
2022/06/11 03:41:10;;;;;;;;;;;20.20;70.50;;;;;;5033719;28;863;-72
2022/06/11 03:43:36;;;;;;;;;;;20.20;70.50;;;;;;5016087;28;1165;-72
2022/06/11 03:46:01;;;;;;;;;;;20.20;70.50;;;;;;5032789;28;796;-72
2022/06/11 03:48:30;;;;;;;;;;;20.20;70.50;;;;;;5033542;28;1952;-71
2022/06/11 03:50:56;;;;;;;;;;;20.20;70.50;;;;;;5016105;28;1398;-71
2022/06/11 03:53:21;;;;;;;;;;;20.20;70.50;;;;;;5032445;28;824;-71
2022/06/11 03:55:47;;;;;;;;;;;20.10;70.50;;;;;;5032479;28;887;-70
2022/06/11 03:58:12;;;;;;;;;;;20.20;70.50;;;;;;5033632;28;1197;-70
2022/06/11 04:03:22;;;;;;;;;;;20.20;70.50;;;;;;5032582;28;634;-69
2022/06/11 04:05:48;;;;;;;;;;;20.20;70.50;;;;;;5033542;28;864;-70
2022/06/11 04:08:13;;;;;;;;;;;20.20;70.50;;;;;;5028710;28;1894;-70
2022/06/11 04:10:39;;;;;;;;;;;20.10;70.50;;;;;;5013433;28;788;-71
2022/06/11 04:13:04;;;;;;;;;;;20.20;70.50;;;;;;5013408;28;871;-71
2022/06/11 04:15:30;;;;;;;;;;;20.20;70.50;;;;;;5012444;28;943;-71
2022/06/11 04:17:55;;;;;;;;;;;20.20;70.50;;;;;;5012270;28;1297;-71
2022/06/11 04:20:21;;;;;;;;;;;20.20;70.60;;;;;;4995543;28;1516;-71
2022/06/11 04:22:46;;;;;;;;;;;20.20;70.50;;;;;;5012247;28;839;-71
2022/06/11 04:25:12;;;;;;;;;;;20.20;70.60;;;;;;5008068;28;1136;-71
2022/06/11 04:27:38;;;;;;;;;;;20.20;70.50;;;;;;4995456;28;1906;-70
2022/06/11 04:30:03;;;;;;;;;;;20.10;70.50;;;;;;4995533;28;1126;-70
2022/06/11 04:32:29;;;;;;;;;;;20.20;70.50;;;;;;5012650;28;1059;-69
2022/06/11 04:34:54;;;;;;;;;;;20.20;70.60;;;;;;4979380;28;1212;-71
2022/06/11 04:37:21;;;;;;;;;;;20.10;70.50;;;;;;5013246;28;792;-73
2022/06/11 04:39:47;;;;;;;;;;;20.20;70.50;;;;;;5011857;28;1172;-71
2022/06/11 04:42:13;;;;;;;;;;;20.20;70.50;;;;;;5011737;28;914;-72
2022/06/11 04:44:39;;;;;;;;;;;20.10;70.50;;;;;;4995969;28;1326;-71
2022/06/11 04:47:05;;;;;;;;;;;20.20;70.50;;;;;;5011939;28;1894;-72
2022/06/11 04:49:30;;;;;;;;;;;20.20;70.50;;;;;;5011823;28;1301;-71
2022/06/11 04:51:55;;;;;;;;;;;20.10;70.50;;;;;;5013030;28;879;-71
2022/06/11 04:54:21;;;;;;;;;;;20.20;70.50;;;;;;5013215;28;998;-70
2022/06/11 04:56:46;;;;;;;;;;;20.20;70.50;;;;;;4995489;28;967;-71
2022/06/11 04:59:12;;;;;;;;;;;20.20;70.60;;;;;;5013305;28;1221;-71
2022/06/11 05:01:38;;;;;;;;;;;20.20;70.60;;;;;;5011561;28;961;-70
2022/06/11 05:04:03;;;;;;;;;;;20.20;70.50;;;;;;5013334;28;795;-71
2022/06/11 05:06:30;;;;;;;;;;;20.20;70.60;;;;;;5011786;28;938;-72
2022/06/11 05:08:55;;;;;;;;;;;20.20;70.60;;;;;;5048199;23;1967;-68
2022/06/11 05:11:21;;;;;;;;;;;20.20;70.60;;;;;;5030077;28;1371;-68
2022/06/11 05:13:47;;;;;;;;;;;20.20;70.50;;;;;;5032120;28;997;-68
2022/06/11 05:16:13;;;;;;;;;;;20.20;70.60;;;;;;5014792;28;1286;-68
2022/06/11 05:18:39;;;;;;;;;;;20.20;70.50;;;;;;5031095;28;1230;-68
2022/06/11 05:21:04;;;;;;;;;;;20.20;70.60;;;;;;5030539;28;807;-68
2022/06/11 05:23:30;;;;;;;;;;;20.20;70.50;;;;;;5031203;28;776;-68
2022/06/11 05:25:55;;;;;;;;;;;20.20;70.50;;;;;;5018515;28;1188;-67
2022/06/11 05:28:22;;;;;;;;;;;20.20;70.50;;;;;;5012476;28;1895;-66
2022/06/11 05:30:47;;;;;;;;;;;20.20;70.50;;;;;;5010592;28;1267;-67
2022/06/11 05:33:13;;;;;;;;;;;20.20;70.60;;;;;;5017615;28;1099;-67
2022/06/11 05:35:38;;;;;;;;;;;20.20;70.90;;;;;;5032021;28;848;-67
2022/06/11 05:38:05;;;;;;;;;;;20.20;70.60;;;;;;5003515;28;1818;-68
2022/06/11 05:40:32;;;;;;;;;;;20.20;70.60;;;;;;5026282;28;1057;-68
2022/06/11 05:42:57;;;;;;;;;;;20.10;70.50;;;;;;5022212;28;1276;-67
2022/06/11 05:45:25;;;;;;;;;;;20.20;70.60;;;;;;5033589;28;898;-66
2022/06/11 05:47:51;;;;;;;;;;;20.20;70.60;;;;;;5034569;28;1894;-67
2022/06/11 05:50:18;;;;;;;;;;;20.20;70.60;;;;;;5033149;28;1010;-66
2022/06/11 05:52:45;;;;;;;;;;;20.20;70.60;;;;;;5033558;28;886;-66
2022/06/11 05:55:12;;;;;;;;;;;20.20;70.60;;;;;;5033434;28;867;-67
2022/06/11 05:57:37;;;;;;;;;;;20.10;70.50;;;;;;5034673;28;1676;-67
2022/06/11 06:00:04;;;;;;;;;;;20.20;70.60;;;;;;5034346;28;1060;-68
2022/06/11 06:02:30;;;;;;;;;;;20.20;70.60;;;;;;5034800;28;1137;-68
2022/06/11 06:04:55;;;;;;;;;;;20.20;70.60;;;;;;5034465;28;942;-66
2022/06/11 06:07:21;;;;;;;;;;;20.20;70.60;;;;;;5034465;28;2253;-66
2022/06/11 06:09:47;;;;;;;;;;;20.20;70.60;;;;;;5069321;28;1297;-66
2022/06/11 06:12:13;;;;;;;;;;;20.20;70.60;;;;;;5073902;28;882;-67
2022/06/11 06:14:38;;;;;;;;;;;20.20;70.60;;;;;;5073194;28;909;-66
2022/06/11 06:17:04;;;;;;;;;;;20.20;71.30;;;;;;5073851;28;913;-66
2022/06/11 06:19:29;;;;;;;;;;;20.20;70.60;;;;;;5060437;28;1250;-67
2022/06/11 06:21:55;;;;;;;;;;;20.20;70.60;;;;;;5053487;28;895;-66
2022/06/11 06:24:20;;;;;;;;;;;20.20;70.60;;;;;;5053455;28;1181;-66
2022/06/11 06:26:46;;;;;;;;;;;20.10;70.50;;;;;;5054139;28;1967;-66
2022/06/11 06:29:11;;;;;;;;;;;20.20;70.60;;;;;;5053875;28;1735;-67
2022/06/11 06:31:37;;;;;;;;;;;20.20;70.60;;;;;;5053285;28;791;-66
2022/06/11 06:34:03;;;;;;;;;;;20.20;70.60;;;;;;5066203;28;1094;-66
2022/06/11 06:36:28;;;;;;;;;;;20.20;70.60;;;;;;5072725;28;853;-65
2022/06/11 06:38:54;;;;;;;;;;;20.20;70.60;;;;;;5060209;28;2020;-66
2022/06/11 06:41:19;;;;;;;;;;;20.20;70.60;;;;;;5070583;28;1060;-66
2022/06/11 06:43:45;;;;;;;;;;;20.10;70.50;;;;;;5072695;28;823;-67
2022/06/11 06:46:10;;;;;;;;;;;20.20;70.60;;;;;;5073548;28;807;-65
2022/06/11 06:48:36;;;;;;;;;;;20.20;70.60;;;;;;5073427;28;1977;-65
2022/06/11 06:51:02;;;;;;;;;;;20.20;70.60;;;;;;5073179;28;1068;-66
2022/06/11 06:53:27;;;;;;;;;;;20.10;70.50;;;;;;5072049;28;930;-66
2022/06/11 06:55:53;;;;;;;;;;;20.20;70.60;;;;;;5071297;28;895;-67
2022/06/11 06:58:18;;;;;;;;;;;20.20;70.60;;;;;;5074108;28;1312;-67
2022/06/11 07:00:44;;;;;;;;;;;20.10;70.50;;;;;;5073557;28;1036;-66
2022/06/11 07:03:11;;;;;;;;;;;20.20;70.60;;;;;;5070985;28;1991;-66
2022/06/11 07:05:37;;;;;;;;;;;20.20;70.60;;;;;;5065754;28;1184;-67
2022/06/11 07:08:02;;;;;;;;;;;20.20;70.60;;;;;;5065268;28;1956;-66
2022/06/11 07:10:28;;;;;;;;;;;20.20;70.60;;;;;;5068023;28;2240;-66
2022/06/11 07:12:53;;;;;;;;;;;20.20;70.60;;;;;;5068251;28;1660;-66
2022/06/11 07:15:19;;;;;;;;;;;20.20;70.60;;;;;;5055337;28;1041;-66
2022/06/11 07:17:48;;;;;;;;;;;20.20;70.60;;;;;;5071558;28;1351;-66
2022/06/11 07:20:18;;;;;;;;;;;20.20;70.60;;;;;;5053687;28;1145;-66
2022/06/11 07:22:49;;;;;;;;;;;20.20;70.60;;;;;;5063126;28;1207;-66
2022/06/11 07:25:14;;;;;;;;;;;20.10;70.50;;;;;;5064615;28;1205;-66
2022/06/11 07:27:41;;;;;;;;;;;20.20;70.60;;;;;;5054005;28;1910;-67
2022/06/11 07:30:10;;;;;;;;;;;20.10;70.50;;;;;;5052774;28;854;-67
2022/06/11 07:32:37;;;;;;;;;;;20.20;70.60;;;;;;5053766;28;1102;-66
2022/06/11 07:35:03;;;;;;;;;;;20.10;70.50;;;;;;5052586;28;846;-67
2022/06/11 07:37:29;;;;;;;;;;;20.20;70.60;;;;;;5052589;28;1079;-66
2022/06/11 07:39:54;;;;;;;;;;;20.10;70.50;;;;;;5052766;28;1170;-66
2022/06/11 07:42:20;;;;;;;;;;;20.10;70.50;;;;;;5052048;28;919;-66
2022/06/11 07:44:45;;;;;;;;;;;20.20;70.60;;;;;;5053543;28;795;-65
2022/06/11 07:47:11;;;;;;;;;;;20.20;70.60;;;;;;5053440;28;1949;-65
2022/06/11 07:49:36;;;;;;;;;;;20.20;70.60;;;;;;5053162;28;1290;-66
2022/06/11 07:52:02;;;;;;;;;;;20.10;70.50;;;;;;5052824;28;790;-66
2022/06/11 07:54:28;;;;;;;;;;;20.10;70.50;;;;;;5053600;28;857;-67
2022/06/11 07:56:53;;;;;;;;;;;20.20;70.60;;;;;;5052218;28;1186;-67
2022/06/11 07:59:19;;;;;;;;;;;20.10;70.50;;;;;;5053704;28;1291;-67
2022/06/11 08:01:44;;;;;;;;;;;20.20;70.60;;;;;;5052769;28;955;-68
2022/06/11 08:04:10;;;;;;;;;;;20.20;70.60;;;;;;5052706;28;1002;-68
2022/06/11 08:06:35;;;;;;;;;;;20.20;70.60;;;;;;5053260;28;969;-69
2022/06/11 08:09:01;;;;;;;;;;;20.10;70.50;;;;;;5051299;28;1898;-68
2022/06/11 08:11:26;;;;;;;;;;;20.10;70.50;;;;;;5052570;28;820;-67
2022/06/11 08:13:52;;;;;;;;;;;20.20;70.60;;;;;;5053087;28;977;-65
2022/06/11 08:16:17;;;;;;;;;;;20.20;70.60;;;;;;5052467;28;912;-67
2022/06/11 08:18:44;;;;;;;;;;;20.20;70.60;;;;;;5059905;28;1309;-67
2022/06/11 08:21:09;;;;;;;;;;;20.20;70.60;;;;;;5072115;28;821;-67
2022/06/11 08:23:36;;;;;;;;;;;20.20;70.60;;;;;;5072876;28;773;-66
2022/06/11 08:26:01;;;;;;;;;;;20.20;70.60;;;;;;5057987;28;1110;-67
2022/06/11 08:28:27;;;;;;;;;;;20.20;70.60;;;;;;5052697;28;1969;-67
2022/06/11 08:30:52;;;;;;;;;;;20.20;70.60;;;;;;5052527;28;835;-67
2022/06/11 08:33:18;;;;;;;;;;;20.20;70.60;;;;;;5058702;28;1149;-68
2022/06/11 08:35:43;;;;;;;;;;;20.20;70.60;;;;;;5072504;28;870;-68
2022/06/11 08:38:09;;;;;;;;;;;20.20;70.60;;;;;;5072729;28;1307;-66
2022/06/11 08:40:36;;;;;;;;;;;20.10;70.50;;;;;;5071200;28;883;-67
2022/06/11 08:43:18;;;;;;;;;;;20.20;70.60;;;;;;5051419;28;1462;-68
2022/06/11 08:45:45;;;;;;;;;;;20.20;70.60;;;;;;5050624;28;803;-67
2022/06/11 08:48:13;;;;;;;;;;;20.20;70.60;;;;;;5050242;28;1894;-68
2022/06/11 08:50:40;;;;;;;;;;;20.20;70.60;;;;;;5051155;28;866;-67
2022/06/11 08:53:06;;;;;;;;;;;20.10;70.50;;;;;;5050866;28;874;-67
2022/06/11 08:55:34;;;;;;;;;;;20.20;70.60;;;;;;5050880;28;921;-67
2022/06/11 08:58:05;;;;;;;;;;;20.20;70.60;;;;;;5050158;28;1294;-68
2022/06/11 09:00:34;;;;;;;;;;;20.20;70.60;;;;;;5050745;28;811;-68
2022/06/11 09:03:02;;;;;;;;;;;20.20;70.60;;;;;;5050437;28;1623;-68
2022/06/11 09:05:40;;;;;;;;;;;20.20;70.60;;;;;;5051551;28;989;-67
2022/06/11 09:08:11;;;;;;;;;;;20.20;70.60;;;;;;5049922;28;1898;-66
2022/06/11 09:10:52;;;;;;;;;;;20.20;70.60;;;;;;5050988;28;815;-67
2022/06/11 09:13:27;;;;;;;;;;;20.20;70.60;;;;;;5051225;28;914;-68
2022/06/11 09:16:12;;;;;;;;;;;20.20;70.60;;;;;;5051365;28;858;-67
2022/06/11 09:19:01;;;;;;;;;;;20.20;70.60;;;;;;5059166;28;1442;-68
2022/06/11 09:21:26;;;;;;;;;;;20.20;70.60;;;;;;5073622;28;845;-68
2022/06/11 09:23:51;;;;;;;;;;;20.20;70.60;;;;;;5075532;28;807;-68
2022/06/11 09:26:20;;;;;;;;;;;20.20;70.60;;;;;;5058487;28;1149;-67
2022/06/11 09:28:51;;;;;;;;;;;20.20;70.60;;;;;;5054830;28;1965;-67
2022/06/11 09:31:16;;;;;;;;;;;20.20;70.60;;;;;;5054601;28;1230;-67
2022/06/11 09:33:47;;;;;;;;;;;20.20;70.60;;;;;;5064467;28;1090;-67
2022/06/11 09:36:30;;;;;;;;;;;20.20;70.60;;;;;;5073792;28;950;-68
2022/06/11 09:39:03;;;;;;;;;;;20.20;70.60;;;;;;5072527;28;2388;-67
2022/06/11 09:41:38;;;;;;;;;;;20.20;70.60;;;;;;5066781;28;1651;-67
2022/06/11 09:44:07;;;;;;;;;;;20.20;70.60;;;;;;5072914;28;1104;-68
2022/06/11 09:46:48;;;;;;;;;;;20.20;70.60;;;;;;5074803;28;997;-67
2022/06/11 09:49:16;;;;;;;;;;;20.20;70.60;;;;;;5073181;28;1294;-67
2022/06/11 09:51:57;;;;;;;;;;;20.20;70.60;;;;;;5074035;28;871;-67
2022/06/11 09:54:34;;;;;;;;;;;20.20;70.60;;;;;;5074621;28;1072;-67
2022/06/11 09:57:17;;;;;;;;;;;20.20;70.60;;;;;;5072939;28;866;-67
2022/06/11 09:59:47;;;;;;;;;;;20.20;70.60;;;;;;5068817;28;1290;-67
2022/06/11 10:02:50;;;;;;;;;;;20.20;70.60;;;;;;5052690;28;804;-67
2022/06/11 10:05:25;;;;;;;;;;;20.20;70.60;;;;;;5051668;28;1193;-68
2022/06/11 10:07:53;;;;;;;;;;;20.20;70.60;;;;;;5053056;28;1886;-68
2022/06/11 10:10:26;;;;;;;;;;;20.20;70.60;;;;;;5053633;28;851;-67
2022/06/11 10:12:53;;;;;;;;;;;20.20;70.60;;;;;;5053936;28;1016;-67
2022/06/11 10:15:30;;;;;;;;;;;20.20;70.60;;;;;;5053179;28;878;-67
2022/06/11 10:18:04;;;;;;;;;;;20.20;70.60;;;;;;5055529;28;2183;-67
2022/06/11 10:20:35;;;;;;;;;;;20.10;70.50;;;;;;5072597;28;1093;-67
2022/06/11 10:23:12;;;;;;;;;;;20.20;70.60;;;;;;5053834;28;800;-67
2022/06/11 10:25:40;;;;;;;;;;;20.20;70.60;;;;;;5066254;28;1169;-67
2022/06/11 10:28:08;;;;;;;;;;;20.20;70.60;;;;;;5073768;28;2304;-67
2022/06/11 10:30:34;;;;;;;;;;;20.20;70.60;;;;;;5073244;28;886;-67
2022/06/11 10:33:00;;;;;;;;;;;20.20;70.60;;;;;;5071650;28;1105;-67
2022/06/11 10:35:28;;;;;;;;;;;20.10;70.50;;;;;;5053824;28;789;-67
2022/06/11 10:37:58;;;;;;;;;;;20.20;70.60;;;;;;5053153;28;1207;-68
2022/06/11 10:40:31;;;;;;;;;;;20.20;70.60;;;;;;5053095;28;973;-67
2022/06/11 10:43:05;;;;;;;;;;;20.20;70.60;;;;;;5054006;28;1001;-67
2022/06/11 10:45:31;;;;;;;;;;;20.20;70.60;;;;;;5054764;28;812;-67
2022/06/11 10:47:57;;;;;;;;;;;20.20;70.60;;;;;;5059918;28;2164;-67
2022/06/11 10:50:24;;;;;;;;;;;20.20;70.60;;;;;;5073687;28;1483;-67
2022/06/11 10:52:49;;;;;;;;;;;20.20;70.60;;;;;;5053960;28;1937;-67
2022/06/11 10:55:30;;;;;;;;;;;20.20;70.50;;;;;;5072259;28;796;-68
2022/06/11 10:57:56;;;;;;;;;;;20.20;70.50;;;;;;5068930;28;1720;-68
2022/06/11 11:00:23;;;;;;;;;;;20.20;70.50;;;;;;5071274;28;1187;-68
2022/06/11 11:02:50;;;;;;;;;;;20.20;70.50;;;;;;5071965;28;1160;-68
2022/06/11 11:05:16;;;;;;;;;;;20.20;70.60;;;;;;5072181;28;906;-68
2022/06/11 11:07:43;;;;;;;;;;;20.20;70.50;;;;;;5070809;28;1899;-68
2022/06/11 11:10:38;;;;;;;;;;;20.20;70.60;;;;;;5071339;28;784;-68
2022/06/11 11:13:07;;;;;;;;;;;20.20;70.60;;;;;;5075511;23;2044;-68
2022/06/11 11:15:39;;;;;;;;;;;20.20;70.60;;;;;;5089737;28;1893;-69
2022/06/11 11:18:31;;;;;;;;;;;20.20;70.50;;;;;;5050483;28;1298;-69
2022/06/11 11:20:57;;;;;;;;;;;20.20;70.50;;;;;;5068234;28;1158;-69
2022/06/11 11:23:30;;;;;;;;;;;20.20;70.60;;;;;;5072163;28;1960;-70
2022/06/11 11:25:57;;;;;;;;;;;20.20;70.60;;;;;;5065199;28;1239;-70
2022/06/11 11:28:24;;;;;;;;;;;20.20;70.50;;;;;;5019189;28;1981;-69
2022/06/11 11:31:15;;;;;;;;;;;20.20;70.50;;;;;;5070960;28;807;-69
2022/06/11 11:33:43;;;;;;;;;;;20.20;70.50;;;;;;5058982;28;1293;-70
2022/06/11 11:36:22;;;;;;;;;;;20.20;70.50;;;;;;5035498;28;1279;-69
2022/06/11 11:38:58;;;;;;;;;;;20.20;70.50;;;;;;5018518;28;1487;-69
2022/06/11 11:41:24;;;;;;;;;;;20.20;70.60;;;;;;5035460;28;769;-69
2022/06/11 11:43:51;;;;;;;;;;;20.20;70.50;;;;;;5053935;28;1188;-69
2022/06/11 11:46:19;;;;;;;;;;;20.20;70.50;;;;;;5035990;28;882;-69
2022/06/11 11:48:46;;;;;;;;;;;20.20;70.50;;;;;;5042438;28;1951;-69
2022/06/11 11:51:19;;;;;;;;;;;20.20;70.50;;;;;;5049843;28;1198;-69
2022/06/11 11:53:46;;;;;;;;;;;20.20;70.50;;;;;;5050290;28;1675;-69
2022/06/11 11:56:21;;;;;;;;;;;20.20;70.60;;;;;;5065970;28;1204;-69
2022/06/11 11:58:48;;;;;;;;;;;20.20;70.50;;;;;;5040403;28;1145;-70
2022/06/11 12:01:14;;;;;;;;;;;20.20;70.50;;;;;;5035056;28;826;-69
2022/06/11 12:03:43;;;;;;;;;;;20.20;70.50;;;;;;5042216;28;1256;-71
2022/06/11 12:06:10;;;;;;;;;;;20.20;70.60;;;;;;5030457;28;1169;-69
2022/06/11 12:08:44;;;;;;;;;;;20.20;70.60;;;;;;5055091;28;1963;-69
2022/06/11 12:11:29;;;;;;;;;;;20.20;70.60;;;;;;5054676;28;990;-69
2022/06/11 12:14:01;;;;;;;;;;;20.20;70.50;;;;;;5055213;28;1308;-69
2022/06/11 12:16:28;;;;;;;;;;;20.20;70.60;;;;;;5055075;28;943;-69
2022/06/11 12:18:55;;;;;;;;;;;20.20;70.50;;;;;;5046490;28;1166;-69
2022/06/11 12:21:26;;;;;;;;;;;20.20;70.50;;;;;;5034438;28;862;-69
2022/06/11 12:23:57;;;;;;;;;;;20.20;70.50;;;;;;5035009;28;1284;-69
2022/06/11 12:26:27;;;;;;;;;;;20.20;70.60;;;;;;5034891;28;1250;-69
2022/06/11 12:28:57;;;;;;;;;;;20.20;70.50;;;;;;5018190;28;1906;-68
2022/06/11 12:31:23;;;;;;;;;;;20.20;70.60;;;;;;5034275;28;966;-68
2022/06/11 12:33:48;;;;;;;;;;;20.20;70.50;;;;;;5044069;28;1269;-68
2022/06/11 12:36:37;;;;;;;;;;;20.20;70.50;;;;;;5071428;28;881;-68
2022/06/11 12:39:05;;;;;;;;;;;20.20;70.50;;;;;;5061455;28;1185;-69
2022/06/11 12:41:36;;;;;;;;;;;20.20;70.50;;;;;;5053511;28;1192;-69
2022/06/11 12:44:22;;;;;;;;;;;20.20;70.50;;;;;;5072938;28;1592;-68
2022/06/11 12:46:53;;;;;;;;;;;20.20;70.50;;;;;;5058168;28;1090;-69
2022/06/11 12:49:28;;;;;;;;;;;20.20;70.50;;;;;;5054334;28;863;-69
2022/06/11 12:52:05;;;;;;;;;;;20.20;70.50;;;;;;5053157;28;1252;-69
2022/06/11 12:54:40;;;;;;;;;;;20.20;70.60;;;;;;5071867;28;796;-69
2022/06/11 12:57:27;;;;;;;;;;;20.20;70.50;;;;;;5072117;28;815;-69
2022/06/11 12:59:55;;;;;;;;;;;20.20;70.50;;;;;;5071988;28;795;-69
2022/06/11 13:02:35;;;;;;;;;;;20.20;70.50;;;;;;5072150;28;1295;-68
2022/06/11 13:05:01;;;;;;;;;;;20.20;70.50;;;;;;5054149;28;788;-68
2022/06/11 13:07:39;;;;;;;;;;;20.20;70.50;;;;;;5071944;28;1949;-68
2022/06/11 13:10:22;;;;;;;;;;;20.20;70.50;;;;;;5053560;28;1014;-68
2022/06/11 13:13:07;;;;;;;;;;;20.20;70.50;;;;;;5047264;28;1291;-68
2022/06/11 13:15:32;;;;;;;;;;;20.20;70.60;;;;;;5060744;28;1168;-68
2022/06/11 13:18:01;;;;;;;;;;;20.20;70.50;;;;;;5044798;28;1314;-68
2022/06/11 13:20:38;;;;;;;;;;;20.20;70.50;;;;;;5044668;28;1172;-68
2022/06/11 13:23:09;;;;;;;;;;;20.20;70.50;;;;;;5034799;28;1310;-68
2022/06/11 13:25:38;;;;;;;;;;;20.20;70.50;;;;;;5060981;28;1199;-68
2022/06/11 13:28:12;;;;;;;;;;;20.20;70.50;;;;;;5062123;28;1914;-68
2022/06/11 13:30:59;;;;;;;;;;;20.20;70.50;;;;;;5060937;28;1133;-70
2022/06/11 13:33:33;;;;;;;;;;;20.20;70.50;;;;;;5045918;28;1395;-67
2022/06/11 13:36:12;;;;;;;;;;;20.20;70.50;;;;;;5061750;28;1184;-69
2022/06/11 13:38:48;;;;;;;;;;;20.20;70.60;;;;;;5044544;28;1225;-68
2022/06/11 13:41:39;;;;;;;;;;;20.20;70.70;;;;;;5060250;28;1184;-68
2022/06/11 13:44:05;;;;;;;;;;;20.20;70.50;;;;;;5027598;28;1283;-69
2022/06/11 13:46:39;;;;;;;;;;;20.20;70.50;;;;;;5051885;28;1002;-68
2022/06/11 13:49:05;;;;;;;;;;;20.20;70.60;;;;;;5050203;28;1902;-68
2022/06/11 13:51:30;;;;;;;;;;;20.20;70.60;;;;;;5051154;28;934;-68
2022/06/11 13:57:01;;;;;;;;;;;20.20;70.50;;;;;;5051901;28;681;-68
2022/06/11 13:59:28;;;;;;;;;;;20.20;70.50;;;;;;5051664;28;894;-68
2022/06/11 14:02:12;;;;;;;;;;;20.20;70.60;;;;;;5051417;28;1252;-69
2022/06/11 14:04:41;;;;;;;;;;;20.20;70.50;;;;;;5052501;28;989;-69
2022/06/11 14:07:08;;;;;;;;;;;20.20;70.50;;;;;;5053888;28;1955;-70
2022/06/11 14:12:39;;;;;;;;;;;20.20;70.50;;;;;;5031549;28;1209;-70
2022/06/11 14:15:13;;;;;;;;;;;20.20;70.50;;;;;;5055117;28;827;-68
2022/06/11 14:17:51;;;;;;;;;;;20.20;70.50;;;;;;5055099;28;824;-69
2022/06/11 14:20:19;;;;;;;;;;;20.20;70.50;;;;;;5074226;28;942;-68
2022/06/11 14:22:52;;;;;;;;;;;20.20;70.50;;;;;;5074986;28;1201;-68
2022/06/11 14:25:30;;;;;;;;;;;20.20;70.50;;;;;;5048339;28;1154;-70
2022/06/11 14:27:56;;;;;;;;;;;20.20;70.50;;;;;;5054501;28;1894;-68
2022/06/11 14:30:22;;;;;;;;;;;20.20;70.50;;;;;;5036191;28;938;-69
2022/06/11 14:33:04;;;;;;;;;;;20.20;70.50;;;;;;5038720;28;1318;-69
2022/06/11 14:35:50;;;;;;;;;;;20.20;70.50;;;;;;5056694;28;938;-69
2022/06/11 14:38:16;;;;;;;;;;;20.20;70.50;;;;;;5033102;28;1191;-68
2022/06/11 14:40:42;;;;;;;;;;;20.20;70.50;;;;;;5073969;28;946;-69
2022/06/11 14:43:09;;;;;;;;;;;20.20;70.50;;;;;;5056545;28;1369;-69
2022/06/11 14:45:41;;;;;;;;;;;20.20;70.50;;;;;;5074796;28;803;-69
2022/06/11 14:48:43;;;;;;;;;;;20.20;70.50;;;;;;5074413;28;1894;-69
2022/06/11 14:51:11;;;;;;;;;;;20.20;70.50;;;;;;4992052;28;1243;-69
2022/06/11 14:53:46;;;;;;;;;;;20.20;70.50;;;;;;5059506;28;1292;-69
2022/06/11 14:56:14;;;;;;;;;;;20.20;70.50;;;;;;5074537;28;1018;-69